Time;durP1;ratioP1;P1;durP2;ratioP2;P2;SDS_P1;SDS_P2;PMS_P1;PMS_P2;Temp;Humidity;BMP_temperature;BMP_pressure;BME280_temperature;BME280_humidity;BME280_pressure;Samples;Min_cycle;Max_cycle;Signal;HPM_P1;HPM_P2
2022/03/14 00:00:50;;;;;;;;;;;;;;;9.41;100.00;101610.94;5225706;28;19917;-59
2022/03/14 00:03:21;;;;;;;;;;;;;;;9.39;100.00;101613.06;5225585;28;19921;-59
2022/03/14 00:05:51;;;;;;;;;;;;;;;9.38;100.00;101613.28;5226072;28;20004;-60
2022/03/14 00:08:24;;;;;;;;;;;;;;;9.36;100.00;101621.59;5225878;28;20012;-59
2022/03/14 00:10:54;;;;;;;;;;;;;;;9.34;100.00;101623.69;5226138;28;20015;-61
2022/03/14 00:13:26;;;;;;;;;;;;;;;9.35;100.00;101624.50;5225540;28;20027;-60
2022/03/14 00:15:57;;;;;;;;;;;;;;;9.34;100.00;101633.66;5225649;28;20399;-59
2022/03/14 00:18:29;;;;;;;;;;;;;;;9.32;100.00;101635.75;5225444;28;20278;-61
2022/03/14 00:21:05;;;;;;;;;;;;;;;9.27;100.00;101639.13;5225586;28;19958;-60
2022/03/14 00:23:36;;;;;;;;;;;;;;;9.23;100.00;101643.34;5225187;28;20368;-60
2022/03/14 00:26:07;;;;;;;;;;;;;;;9.19;100.00;101646.72;5225412;28;19919;-59
2022/03/14 00:28:38;;;;;;;;;;;;;;;9.14;100.00;101639.31;5225229;28;19916;-65
2022/03/14 00:31:08;;;;;;;;;;;;;;;9.12;100.00;101636.03;5225227;28;19952;-60
2022/03/14 00:33:39;;;;;;;;;;;;;;;9.07;100.00;101638.56;5224736;28;19920;-60
2022/03/14 00:36:10;;;;;;;;;;;;;;;9.03;100.00;101651.69;5225284;28;19916;-59
2022/03/14 00:38:41;;;;;;;;;;;;;;;9.01;100.00;101651.06;5225532;28;19917;-59
2022/03/14 00:41:12;;;;;;;;;;;;;;;9.00;100.00;101654.00;5225246;28;20005;-59
2022/03/14 00:43:43;;;;;;;;;;;;;;;9.01;100.00;101655.66;5224879;28;19913;-60
2022/03/14 00:46:17;;;;;;;;;;;;;;;9.04;100.00;101655.19;5225472;28;19912;-60
2022/03/14 00:48:48;;;;;;;;;;;;;;;9.03;100.00;101653.53;5225338;28;20308;-58
2022/03/14 00:51:18;;;;;;;;;;;;;;;9.02;100.00;101659.97;5225194;28;19916;-59
2022/03/14 00:53:48;;;;;;;;;;;;;;;9.01;100.00;101663.72;5224669;28;19919;-59
2022/03/14 00:56:20;;;;;;;;;;;;;;;9.00;100.00;101670.97;5226669;28;20365;-59
2022/03/14 00:58:50;;;;;;;;;;;;;;;8.98;100.00;101670.38;5225102;28;19959;-59
2022/03/14 01:01:21;;;;;;;;;;;;;;;8.96;100.00;101682.44;5224927;28;19952;-59
2022/03/14 01:03:51;;;;;;;;;;;;;;;8.91;100.00;101680.44;5224797;28;20352;-60
2022/03/14 01:06:22;;;;;;;;;;;;;;;8.83;100.00;101685.28;5225221;28;19982;-59
2022/03/14 01:08:52;;;;;;;;;;;;;;;8.73;100.00;101688.50;5224889;28;19916;-61
2022/03/14 01:11:23;;;;;;;;;;;;;;;8.68;100.00;101699.94;5224975;28;19919;-58
2022/03/14 01:13:53;;;;;;;;;;;;;;;8.70;100.00;101697.00;5224860;28;19912;-57
2022/03/14 01:16:23;;;;;;;;;;;;;;;8.71;100.00;101694.09;5224777;28;19959;-59
2022/03/14 01:18:54;;;;;;;;;;;;;;;8.71;100.00;101704.88;5224896;28;20296;-59
2022/03/14 01:21:24;;;;;;;;;;;;;;;8.73;100.00;101708.16;5224951;28;19959;-57
2022/03/14 01:23:54;;;;;;;;;;;;;;;8.77;100.00;101722.00;5224644;28;19974;-59
2022/03/14 01:26:25;;;;;;;;;;;;;;;8.79;100.00;101726.13;5224896;28;19960;-59
2022/03/14 01:28:55;;;;;;;;;;;;;;;8.82;100.00;101726.72;5224582;28;19970;-61
2022/03/14 01:31:26;;;;;;;;;;;;;;;8.84;100.00;101735.41;5224711;28;19912;-59
2022/03/14 01:33:56;;;;;;;;;;;;;;;8.85;100.00;101737.88;5224394;28;19913;-59
2022/03/14 01:36:27;;;;;;;;;;;;;;;8.86;100.00;101744.09;5224603;28;20371;-60
2022/03/14 01:38:58;;;;;;;;;;;;;;;8.84;100.00;101740.81;5224591;28;19917;-58
2022/03/14 01:41:29;;;;;;;;;;;;;;;8.84;100.00;101756.97;5224546;28;19913;-59
2022/03/14 01:44:01;;;;;;;;;;;;;;;8.83;100.00;101753.44;5224888;28;19920;-60
2022/03/14 01:46:32;;;;;;;;;;;;;;;8.84;100.00;101754.28;5228688;28;20292;-58
2022/03/14 01:49:02;;;;;;;;;;;;;;;8.84;100.00;101762.34;5228475;28;20164;-58
2022/03/14 01:51:34;;;;;;;;;;;;;;;8.81;100.00;101766.31;5228282;28;19919;-58
2022/03/14 01:54:04;;;;;;;;;;;;;;;8.80;100.00;101778.94;5228418;28;19916;-59
2022/03/14 01:56:35;;;;;;;;;;;;;;;8.79;100.00;101777.31;5228525;28;20400;-59
2022/03/14 01:59:06;;;;;;;;;;;;;;;8.79;100.00;101777.31;5228646;28;19913;-59
2022/03/14 02:01:36;;;;;;;;;;;;;;;8.75;100.00;101781.47;5228207;28;20381;-60
2022/03/14 02:04:08;;;;;;;;;;;;;;;8.73;100.00;101783.56;5229392;28;19935;-59
2022/03/14 02:06:39;;;;;;;;;;;;;;;8.70;100.00;101781.31;5228320;28;19963;-59
2022/03/14 02:09:10;;;;;;;;;;;;;;;8.68;100.00;101786.09;5228001;28;19923;-59
2022/03/14 02:11:49;;;;;;;;;;;;;;;8.66;100.00;101784.69;5228039;28;20388;-59
2022/03/14 02:14:19;;;;;;;;;;;;;;;8.62;100.00;101787.00;5227551;28;20374;-59
2022/03/14 02:16:51;;;;;;;;;;;;;;;8.61;100.00;101788.03;5229263;28;19927;-60
2022/03/14 02:19:21;;;;;;;;;;;;;;;8.62;100.00;101788.88;5228003;28;20242;-59
2022/03/14 02:21:52;;;;;;;;;;;;;;;8.61;100.00;101798.81;5227990;28;19913;-59
2022/03/14 02:24:26;;;;;;;;;;;;;;;8.61;100.00;101796.13;5227514;28;19912;-60
2022/03/14 02:26:56;;;;;;;;;;;;;;;8.60;100.00;101796.34;5227677;28;19944;-58
2022/03/14 02:29:26;;;;;;;;;;;;;;;8.60;100.00;101818.69;5227615;28;19971;-58
2022/03/14 02:31:57;;;;;;;;;;;;;;;8.61;100.00;101814.97;5227805;28;20332;-61
2022/03/14 02:34:27;;;;;;;;;;;;;;;8.61;100.00;101823.03;5227192;28;19920;-60
2022/03/14 02:36:57;;;;;;;;;;;;;;;8.61;100.00;101825.75;5227717;28;20336;-60
2022/03/14 02:39:28;;;;;;;;;;;;;;;8.62;100.00;101821.19;5228765;28;19912;-63
2022/03/14 02:41:59;;;;;;;;;;;;;;;8.59;100.00;101833.22;5227657;28;19913;-60
2022/03/14 02:44:31;;;;;;;;;;;;;;;8.57;100.00;101837.97;5227192;28;19913;-60
2022/03/14 02:47:04;;;;;;;;;;;;;;;8.50;100.00;101837.19;5227252;28;19912;-60
2022/03/14 02:49:34;;;;;;;;;;;;;;;8.41;100.00;101843.88;5227495;28;19921;-60
2022/03/14 02:52:05;;;;;;;;;;;;;;;8.34;100.00;101845.81;5227040;28;19913;-60
2022/03/14 02:54:35;;;;;;;;;;;;;;;8.30;100.00;101842.69;5226587;28;20396;-66
2022/03/14 02:57:07;;;;;;;;;;;;;;;8.29;100.00;101841.03;5227106;28;20015;-60
2022/03/14 02:59:37;;;;;;;;;;;;;;;8.27;100.00;101845.81;5225236;28;19923;-60
2022/03/14 03:02:10;;;;;;;;;;;;;;;8.25;100.00;101847.91;5227132;28;19913;-60
2022/03/14 03:04:40;;;;;;;;;;;;;;;8.24;100.00;101856.19;5226848;28;19913;-60
2022/03/14 03:07:11;;;;;;;;;;;;;;;8.21;100.00;101872.75;5227038;28;20359;-60
2022/03/14 03:09:41;;;;;;;;;;;;;;;8.17;100.00;101883.13;5226998;28;19924;-60
2022/03/14 03:12:14;;;;;;;;;;;;;;;8.14;100.00;101881.69;5226724;28;19913;-58
2022/03/14 03:14:45;;;;;;;;;;;;;;;8.10;100.00;101877.78;5226951;28;19913;-59
2022/03/14 03:17:15;;;;;;;;;;;;;;;8.06;100.00;101890.03;5227757;28;19913;-59
2022/03/14 03:19:46;;;;;;;;;;;;;;;8.03;100.00;101901.22;5227174;28;20365;-60
2022/03/14 03:22:16;;;;;;;;;;;;;;;7.96;100.00;101911.16;5226807;28;19913;-57
2022/03/14 03:24:47;;;;;;;;;;;;;;;7.89;100.00;101918.41;5226441;28;20389;-59
2022/03/14 03:27:17;;;;;;;;;;;;;;;7.82;100.00;101923.00;5226718;28;19912;-59
2022/03/14 03:29:48;;;;;;;;;;;;;;;7.76;100.00;101931.94;5226290;28;19923;-59
2022/03/14 03:32:18;;;;;;;;;;;;;;;7.70;100.00;101938.97;5226621;28;20343;-60
2022/03/14 03:34:48;;;;;;;;;;;;;;;7.68;100.00;101937.53;5226042;28;20289;-59
2022/03/14 03:37:19;;;;;;;;;;;;;;;7.67;100.00;101943.94;5226549;28;20391;-60
2022/03/14 03:39:49;;;;;;;;;;;;;;;7.65;100.00;101943.31;5226371;28;19913;-59
2022/03/14 03:42:20;;;;;;;;;;;;;;;7.66;100.00;101953.03;5226610;28;19920;-58
2022/03/14 03:44:50;;;;;;;;;;;;;;;7.67;100.00;101962.75;5225965;28;19916;-64
2022/03/14 03:47:20;;;;;;;;;;;;;;;7.68;100.00;101970.59;5226414;28;19916;-58
2022/03/14 03:49:51;;;;;;;;;;;;;;;7.68;100.00;101973.31;5226762;28;19927;-58
2022/03/14 03:52:22;;;;;;;;;;;;;;;7.70;100.00;101981.16;5226728;28;19912;-57
2022/03/14 03:54:52;;;;;;;;;;;;;;;7.71;100.00;101985.50;5226262;28;19916;-59
2022/03/14 03:57:22;;;;;;;;;;;;;;;7.69;100.00;101983.03;5226320;28;19955;-58
2022/03/14 03:59:53;;;;;;;;;;;;;;;7.67;100.00;101987.78;5226073;28;19919;-58
2022/03/14 04:02:23;;;;;;;;;;;;;;;7.63;100.00;101991.09;5226544;28;19939;-58
2022/03/14 04:04:54;;;;;;;;;;;;;;;7.61;100.00;102006.59;5226091;28;19920;-58
2022/03/14 04:07:25;;;;;;;;;;;;;;;7.59;100.00;102009.50;5225579;28;19980;-58
2022/03/14 04:09:56;;;;;;;;;;;;;;;7.60;100.00;102021.06;5225686;28;19979;-58
2022/03/14 04:12:26;;;;;;;;;;;;;;;7.60;100.00;102013.84;5225684;28;19913;-58
2022/03/14 04:14:58;;;;;;;;;;;;;;;7.60;100.00;102013.00;5225213;28;19924;-58
2022/03/14 04:17:28;;;;;;;;;;;;;;;7.60;100.00;102026.44;5225799;28;20397;-58
2022/03/14 04:20:00;;;;;;;;;;;;;;;7.60;100.00;102021.06;5225792;28;19920;-58
2022/03/14 04:22:32;;;;;;;;;;;;;;;7.62;100.00;102027.06;5225387;28;19921;-59
2022/03/14 04:25:02;;;;;;;;;;;;;;;7.62;100.00;102041.34;5225683;28;19913;-58
2022/03/14 04:27:33;;;;;;;;;;;;;;;7.64;100.00;102038.44;5225502;28;19913;-61
2022/03/14 04:30:04;;;;;;;;;;;;;;;7.64;100.00;102041.13;5225495;28;20407;-58
2022/03/14 04:32:34;;;;;;;;;;;;;;;7.66;100.00;102055.19;5225699;28;19983;-59
2022/03/14 04:35:05;;;;;;;;;;;;;;;7.69;100.00;102049.41;5226819;28;20011;-60
2022/03/14 04:37:36;;;;;;;;;;;;;;;7.73;100.00;102064.91;5225319;28;19917;-59
2022/03/14 04:40:08;;;;;;;;;;;;;;;7.78;100.00;102057.06;5225750;28;20453;-60
2022/03/14 04:42:38;;;;;;;;;;;;;;;7.83;100.00;102059.09;5225127;28;19959;-60
2022/03/14 04:45:09;;;;;;;;;;;;;;;7.87;100.00;102068.41;5225001;28;19967;-59
2022/03/14 04:47:39;;;;;;;;;;;;;;;7.91;100.00;102077.72;5225304;28;19916;-59
2022/03/14 04:50:10;;;;;;;;;;;;;;;7.94;100.00;102076.47;5225385;28;19986;-59
2022/03/14 04:52:40;;;;;;;;;;;;;;;7.96;100.00;102086.00;5225290;28;19917;-59
2022/03/14 04:55:11;;;;;;;;;;;;;;;7.99;100.00;102096.34;5258491;22;19925;-80
2022/03/14 04:57:41;;;;;;;;;;;;;;;8.02;100.00;102097.78;5257857;28;19916;-82
2022/03/14 05:00:12;;;;;;;;;;;;;;;8.02;100.00;102104.00;5258708;28;19913;-81
2022/03/14 05:02:42;;;;;;;;;;;;;;;8.04;100.00;102112.69;5259573;28;19920;-82
2022/03/14 05:05:13;;;;;;;;;;;;;;;8.04;100.00;102111.88;5266913;28;20010;-83
2022/03/14 05:07:44;;;;;;;;;;;;;;;8.06;100.00;102112.47;5258296;28;19952;-82
2022/03/14 05:10:14;;;;;;;;;;;;;;;8.08;100.00;102121.19;5242105;28;19923;-83
2022/03/14 05:12:44;;;;;;;;;;;;;;;8.07;100.00;102123.03;5246077;28;19955;-81
2022/03/14 05:15:17;;;;;;;;;;;;;;;8.08;100.00;102123.88;5249298;28;19916;-83
2022/03/14 05:17:48;;;;;;;;;;;;;;;8.07;100.00;102127.59;5276619;28;19912;-80
2022/03/14 05:20:19;;;;;;;;;;;;;;;8.04;100.00;102134.22;5261084;28;19935;-82
2022/03/14 05:22:50;;;;;;;;;;;;;;;8.02;100.00;102122.81;5247238;28;19944;-83
2022/03/14 05:25:21;;;;;;;;;;;;;;;7.99;100.00;102131.31;5259877;28;19912;-84
2022/03/14 05:27:54;;;;;;;;;;;;;;;7.96;100.00;102134.41;5257819;28;19981;-83
2022/03/14 05:30:24;;;;;;;;;;;;;;;7.94;100.00;102136.47;5264425;28;19912;-84
2022/03/14 05:32:54;;;;;;;;;;;;;;;7.95;100.00;102134.63;5267728;28;19923;-84
2022/03/14 05:35:24;;;;;;;;;;;;;;;7.97;100.00;102137.94;5262395;28;20316;-80
2022/03/14 05:37:55;;;;;;;;;;;;;;;7.97;100.00;102144.13;5263971;28;19923;-81
2022/03/14 05:40:25;;;;;;;;;;;;;;;7.99;100.00;102143.94;5251035;28;19923;-83
2022/03/14 05:42:56;;;;;;;;;;;;;;;7.99;100.00;102142.06;5241338;28;19916;-84
2022/03/14 05:45:26;;;;;;;;;;;;;;;7.98;100.00;102145.78;5259556;28;19987;-84
2022/03/14 05:47:57;;;;;;;;;;;;;;;8.00;100.00;102149.09;5259475;28;19927;-86
2022/03/14 05:50:27;;;;;;;;;;;;;;;8.00;100.00;102154.50;5242954;28;19916;-84
2022/03/14 05:52:57;;;;;;;;;;;;;;;8.01;100.00;102153.47;5263126;28;19959;-84
2022/03/14 05:55:28;;;;;;;;;;;;;;;8.02;100.00;102156.97;5256644;28;20382;-82
2022/03/14 05:57:58;;;;;;;;;;;;;;;8.04;100.00;102169.19;5239343;28;19935;-83
2022/03/14 06:00:30;;;;;;;;;;;;;;;8.05;100.00;102173.53;5239428;28;20293;-84
2022/03/14 06:03:00;;;;;;;;;;;;;;;8.06;100.00;102185.94;5241339;28;19920;-84
2022/03/14 06:05:31;;;;;;;;;;;;;;;8.07;100.00;102184.09;5270228;28;19941;-85
2022/03/14 06:08:01;;;;;;;;;;;;;;;8.08;100.00;102185.75;5263607;28;19997;-83
2022/03/14 06:10:32;;;;;;;;;;;;;;;8.09;100.00;102190.88;5273074;28;19997;-84
2022/03/14 06:13:03;;;;;;;;;;;;;;;8.11;100.00;102194.19;5269814;28;19912;-82
2022/03/14 06:15:33;;;;;;;;;;;;;;;8.12;100.00;102186.97;5240114;28;19920;-84
2022/03/14 06:18:03;;;;;;;;;;;;;;;8.14;100.00;102199.16;5257329;28;19958;-84
2022/03/14 06:20:34;;;;;;;;;;;;;;;8.14;100.00;102199.16;5238380;28;20006;-84
2022/03/14 06:23:04;;;;;;;;;;;;;;;8.17;100.00;102213.25;5256354;28;20315;-84
2022/03/14 06:25:38;;;;;;;;;;;;;;;8.19;100.00;102216.56;5255310;28;19922;-84
2022/03/14 06:28:08;;;;;;;;;;;;;;;8.20;100.00;102216.34;5254696;28;20243;-82
2022/03/14 06:30:38;;;;;;;;;;;;;;;8.24;100.00;102227.53;5253296;28;19920;-82
2022/03/14 06:33:09;;;;;;;;;;;;;;;8.26;100.00;102222.78;5254512;28;20425;-83
2022/03/14 06:35:40;;;;;;;;;;;;;;;8.28;100.00;102228.78;5235334;28;20386;-83
2022/03/14 06:38:11;;;;;;;;;;;;;;;8.29;100.00;102228.56;5255045;28;19916;-82
2022/03/14 06:40:42;;;;;;;;;;;;;;;8.32;100.00;102236.28;5237169;28;19919;-83
2022/03/14 06:43:15;;;;;;;;;;;;;;;8.36;100.00;102244.75;5252383;28;21372;-83
2022/03/14 06:45:46;;;;;;;;;;;;;;;8.37;100.00;102249.13;5235646;28;19920;-82
2022/03/14 06:48:17;;;;;;;;;;;;;;;8.39;100.00;102249.72;5235745;28;19928;-83
2022/03/14 06:50:47;;;;;;;;;;;;;;;8.40;100.00;102243.28;5235434;28;19912;-82
2022/03/14 06:53:17;;;;;;;;;;;;;;;8.41;100.00;102253.03;5255217;28;19920;-81
2022/03/14 06:55:48;;;;;;;;;;;;;;;8.44;100.00;102258.00;5235509;28;19917;-82
2022/03/14 06:58:18;;;;;;;;;;;;;;;8.43;100.00;102254.47;5235743;28;19935;-83
2022/03/14 07:00:49;;;;;;;;;;;;;;;8.46;100.00;102255.91;5253771;28;20289;-83
2022/03/14 07:03:19;;;;;;;;;;;;;;;8.52;100.00;102262.34;5253833;28;20358;-82
2022/03/14 07:05:49;;;;;;;;;;;;;;;8.54;100.00;102263.78;5235343;28;19917;-80
2022/03/14 07:08:20;;;;;;;;;;;;;;;8.56;100.00;102266.28;5260378;28;19916;-80
2022/03/14 07:10:50;;;;;;;;;;;;;;;8.59;100.00;102279.34;5241896;28;19938;-82
2022/03/14 07:13:20;;;;;;;;;;;;;;;8.65;100.00;102292.81;5256893;28;19912;-81
2022/03/14 07:15:51;;;;;;;;;;;;;;;8.71;100.00;102291.13;5256383;28;20014;-83
2022/03/14 07:18:21;;;;;;;;;;;;;;;8.79;100.00;102289.03;5262348;28;20231;-82
2022/03/14 07:20:51;;;;;;;;;;;;;;;8.82;100.00;102295.06;5262964;28;19912;-83
2022/03/14 07:23:22;;;;;;;;;;;;;;;8.83;100.00;102294.00;5259739;28;20004;-82
2022/03/14 07:25:52;;;;;;;;;;;;;;;8.87;100.00;102296.09;5260816;28;19919;-83
2022/03/14 07:28:22;;;;;;;;;;;;;;;8.91;100.00;102300.03;5243234;28;19924;-84
2022/03/14 07:30:52;;;;;;;;;;;;;;;8.98;100.00;102302.69;5242866;28;19916;-83
2022/03/14 07:33:23;;;;;;;;;;;;;;;9.05;100.00;102301.63;5260907;28;19919;-84
2022/03/14 07:35:53;;;;;;;;;;;;;;;9.14;100.00;102302.25;5261056;28;20050;-81
2022/03/14 07:38:23;;;;;;;;;;;;;;;9.18;100.00;102299.97;5261247;28;19912;-82
2022/03/14 07:40:53;;;;;;;;;;;;;;;9.17;100.00;102301.00;5245199;28;19943;-81
2022/03/14 07:43:24;;;;;;;;;;;;;;;9.12;100.00;102307.84;5259410;28;19912;-83
2022/03/14 07:45:54;;;;;;;;;;;;;;;9.11;100.00;102306.19;5238041;28;19913;-84
2022/03/14 07:48:24;;;;;;;;;;;;;;;9.11;100.00;102313.44;5238310;28;19920;-83
2022/03/14 07:50:54;;;;;;;;;;;;;;;9.14;100.00;102313.03;5237309;28;19923;-83
2022/03/14 07:53:25;;;;;;;;;;;;;;;9.15;100.00;102322.78;5253483;28;19923;-82
2022/03/14 07:55:55;;;;;;;;;;;;;;;9.21;100.00;102323.81;5235324;28;20378;-82
2022/03/14 07:58:25;;;;;;;;;;;;;;;9.35;100.00;102328.09;5235708;28;19951;-82
2022/03/14 08:00:56;;;;;;;;;;;;;;;9.57;100.00;102320.56;5235145;28;19971;-83
2022/03/14 08:03:26;;;;;;;;;;;;;;;9.74;100.00;102336.06;5252623;28;19921;-84
2022/03/14 08:06:00;;;;;;;;;;;;;;;9.82;100.00;102333.09;5236281;28;19951;-84
2022/03/14 08:08:30;;;;;;;;;;;;;;;9.94;100.00;102338.66;5236784;28;19955;-83
2022/03/14 08:11:02;;;;;;;;;;;;;;;9.98;100.00;102344.44;5236335;28;19920;-83
2022/03/14 08:13:32;;;;;;;;;;;;;;;10.00;100.00;102355.84;5253922;28;19958;-82
2022/03/14 08:16:02;;;;;;;;;;;;;;;9.99;100.00;102365.81;5253288;28;20366;-83
2022/03/14 08:18:33;;;;;;;;;;;;;;;9.96;100.00;102368.94;5252569;28;19912;-83
2022/03/14 08:21:03;;;;;;;;;;;;;;;9.93;100.00;102366.69;5253360;28;20389;-82
2022/03/14 08:23:35;;;;;;;;;;;;;;;9.98;100.00;102366.88;5253165;28;19912;-81
2022/03/14 08:26:07;;;;;;;;;;;;;;;10.00;100.00;102364.78;5253966;28;20321;-83
2022/03/14 08:28:39;;;;;;;;;;;;;;;10.14;100.00;102360.13;5253951;28;19978;-83
2022/03/14 08:31:13;;;;;;;;;;;;;;;10.31;100.00;102363.19;5235471;28;19920;-83
2022/03/14 08:33:44;;;;;;;;;;;;;;;10.49;100.00;102365.97;5253261;28;19961;-83
2022/03/14 08:36:15;;;;;;;;;;;;;;;10.69;100.00;102363.09;5254441;28;19995;-80
2022/03/14 08:38:45;;;;;;;;;;;;;;;10.83;100.00;102376.31;5235918;28;20412;-82
2022/03/14 08:41:16;;;;;;;;;;;;;;;10.98;100.00;102381.34;5254302;28;19912;-83
2022/03/14 08:43:46;;;;;;;;;;;;;;;11.07;100.00;102371.09;5253344;28;19923;-83
2022/03/14 08:46:16;;;;;;;;;;;;;;;11.14;100.00;102385.38;5254168;28;20046;-82
2022/03/14 08:48:47;;;;;;;;;;;;;;;11.19;100.00;102390.97;5253501;28;19916;-81
2022/03/14 08:51:17;;;;;;;;;;;;;;;11.29;100.00;102399.38;5253815;28;19912;-80
2022/03/14 08:53:47;;;;;;;;;;;;;;;11.33;100.00;102395.19;5238902;28;19947;-81
2022/03/14 08:56:17;;;;;;;;;;;;;;;11.34;100.00;102396.81;5256849;28;20346;-80
2022/03/14 08:58:48;;;;;;;;;;;;;;;11.29;100.00;102401.25;5245500;28;19912;-80
2022/03/14 09:01:18;;;;;;;;;;;;;;;11.19;100.00;102409.88;5265664;28;19955;-80
2022/03/14 09:03:48;;;;;;;;;;;;;;;11.16;100.00;102416.56;5247238;28;19920;-79
2022/03/14 09:06:19;;;;;;;;;;;;;;;11.03;100.00;102415.84;5265327;28;19912;-80
2022/03/14 09:08:49;;;;;;;;;;;;;;;10.93;100.00;102426.34;5260552;28;19923;-82
2022/03/14 09:11:19;;;;;;;;;;;;;;;10.89;100.00;102431.34;5256830;28;20294;-83
2022/03/14 09:13:50;;;;;;;;;;;;;;;10.93;100.00;102442.56;5255708;28;19912;-83
2022/03/14 09:16:20;;;;;;;;;;;;;;;10.96;100.00;102448.34;5256465;28;19917;-84
2022/03/14 09:18:52;;;;;;;;;;;;;;;10.99;100.00;102450.59;5256765;28;19994;-83
2022/03/14 09:21:23;;;;;;;;;;;;;;;10.93;100.00;102450.66;5256481;28;19923;-84
2022/03/14 09:23:53;;;;;;;;;;;;;;;10.79;100.00;102453.44;5256223;28;19912;-81
2022/03/14 09:26:23;;;;;;;;;;;;;;;10.70;100.00;102454.75;5256727;28;19912;-81
2022/03/14 09:28:54;;;;;;;;;;;;;;;10.59;100.00;102462.72;5238627;28;20011;-83
2022/03/14 09:31:24;;;;;;;;;;;;;;;10.52;100.00;102470.88;5239525;28;19935;-82
2022/03/14 09:33:54;;;;;;;;;;;;;;;10.44;100.00;102474.66;5256464;28;19972;-83
2022/03/14 09:36:25;;;;;;;;;;;;;;;10.36;100.00;102472.22;5238793;28;19916;-83
2022/03/14 09:38:55;;;;;;;;;;;;;;;10.40;100.00;102481.50;5242866;28;19916;-81
2022/03/14 09:41:27;;;;;;;;;;;;;;;10.48;100.00;102493.94;5266202;28;19923;-82
2022/03/14 09:43:59;;;;;;;;;;;;;;;10.43;100.00;102489.19;5263616;28;19916;-81
2022/03/14 09:46:32;;;;;;;;;;;;;;;10.46;100.00;102493.34;5244722;28;19913;-80
2022/03/14 09:49:02;;;;;;;;;;;;;;;10.56;100.00;102491.00;5256649;28;20194;-83
2022/03/14 09:51:32;;;;;;;;;;;;;;;10.68;100.00;102494.66;5256139;28;19912;-81
2022/03/14 09:54:03;;;;;;;;;;;;;;;10.85;100.00;102497.69;5255955;28;19919;-81
2022/03/14 09:56:33;;;;;;;;;;;;;;;10.97;100.00;102497.84;5239105;28;19924;-82
2022/03/14 09:59:04;;;;;;;;;;;;;;;11.06;100.00;102502.75;5243798;28;19912;-82
2022/03/14 10:01:35;;;;;;;;;;;;;;;11.08;100.00;102510.63;5263745;28;19912;-82
2022/03/14 10:04:07;;;;;;;;;;;;;;;10.99;100.00;102518.16;5246576;28;19928;-80
2022/03/14 10:06:39;;;;;;;;;;;;;;;10.93;100.00;102513.66;5248649;28;19912;-80
2022/03/14 10:09:09;;;;;;;;;;;;;;;10.83;100.00;102518.69;5268280;28;19923;-81
2022/03/14 10:11:40;;;;;;;;;;;;;;;10.76;100.00;102532.25;5262174;28;19913;-81
2022/03/14 10:14:11;;;;;;;;;;;;;;;10.66;100.00;102545.41;5259702;28;19916;-83
2022/03/14 10:16:43;;;;;;;;;;;;;;;10.59;100.00;102547.31;5259896;28;19932;-84
2022/03/14 10:19:20;;;;;;;;;;;;;;;10.78;100.00;102559.06;5241422;28;19948;-83
2022/03/14 10:21:51;;;;;;;;;;;;;;;10.92;100.00;102559.81;5260087;28;19983;-81
2022/03/14 10:24:22;;;;;;;;;;;;;;;10.91;100.00;102566.28;5242661;28;19944;-83
2022/03/14 10:26:54;;;;;;;;;;;;;;;10.85;100.00;102550.91;5241118;28;19912;-84
2022/03/14 10:29:25;;;;;;;;;;;;;;;10.83;100.00;102560.06;5257252;28;20015;-82
2022/03/14 10:31:56;;;;;;;;;;;;;;;10.76;100.00;102556.56;5238849;28;20565;-81
2022/03/14 10:34:26;;;;;;;;;;;;;;;10.78;100.00;102568.00;5239007;28;19935;-83
2022/03/14 10:37:00;;;;;;;;;;;;;;;10.86;100.00;102566.09;5257906;28;20400;-82
2022/03/14 10:39:31;;;;;;;;;;;;;;;10.98;100.00;102569.75;5239678;28;19913;-82
2022/03/14 10:42:09;;;;;;;;;;;;;;;11.36;100.00;102554.31;5256899;28;19913;-82
2022/03/14 10:44:41;;;;;;;;;;;;;;;11.88;100.00;102559.50;5238789;28;19918;-83
2022/03/14 10:47:13;;;;;;;;;;;;;;;12.34;100.00;102561.75;5239951;28;19913;-82
2022/03/14 10:49:43;;;;;;;;;;;;;;;12.67;100.00;102564.88;5256545;28;19926;-81
2022/03/14 10:52:17;;;;;;;;;;;;;;;12.72;100.00;102565.00;5238728;28;19952;-80
2022/03/14 10:54:47;;;;;;;;;;;;;;;12.65;100.00;102567.00;5264432;22;19930;-59
2022/03/14 10:57:26;;;;;;;;;;;;;;;12.60;100.00;102574.16;5273442;28;20010;-59
2022/03/14 10:59:57;;;;;;;;;;;;;;;12.59;100.00;102578.72;5272227;28;19966;-59
2022/03/14 11:02:28;;;;;;;;;;;;;;;12.58;100.00;102577.06;5268067;28;19955;-62
2022/03/14 11:04:59;;;;;;;;;;;;;;;12.58;100.00;102578.97;5251921;28;20406;-59
2022/03/14 11:07:33;;;;;;;;;;;;;;;12.51;100.00;102570.91;5252298;28;19995;-64
2022/03/14 11:10:07;;;;;;;;;;;;;;;12.43;100.00;102576.63;5252061;28;19966;-59
2022/03/14 11:12:37;;;;;;;;;;;;;;;12.46;100.00;102571.56;5251489;28;19919;-59
2022/03/14 11:15:08;;;;;;;;;;;;;;;12.61;100.00;102575.81;5251258;28;19912;-58
2022/03/14 11:17:38;;;;;;;;;;;;;;;12.94;100.00;102569.94;5250699;28;20367;-60
2022/03/14 11:20:09;;;;;;;;;;;;;;;13.20;100.00;102580.44;5251944;28;19912;-59
2022/03/14 11:22:40;;;;;;;;;;;;;;;13.14;100.00;102586.75;5251815;28;19912;-60
2022/03/14 11:25:10;;;;;;;;;;;;;;;13.35;100.00;102588.97;5251602;28;19923;-59
2022/03/14 11:27:42;;;;;;;;;;;;;;;13.49;100.00;102581.44;5251678;28;19916;-59
2022/03/14 11:30:13;;;;;;;;;;;;;;;13.64;100.00;102587.25;5251647;28;20291;-60
2022/03/14 11:32:44;;;;;;;;;;;;;;;13.16;100.00;102527.72;5252019;28;19918;-59
2022/03/14 11:35:15;;;;;;;;;;;;;;;13.45;100.00;102601.97;5251660;28;20007;-59
2022/03/14 11:37:46;;;;;;;;;;;;;;;13.22;100.00;102604.63;5251734;28;20098;-60
2022/03/14 11:40:16;;;;;;;;;;;;;;;12.97;100.00;102596.59;5251636;28;20024;-59
2022/03/14 11:42:47;;;;;;;;;;;;;;;12.94;100.00;102606.03;5251255;28;20380;-60
2022/03/14 11:45:17;;;;;;;;;;;;;;;12.99;100.00;102606.16;5251594;28;19916;-59
2022/03/14 11:47:51;;;;;;;;;;;;;;;12.91;100.00;102608.38;5251410;28;20006;-61
2022/03/14 11:50:22;;;;;;;;;;;;;;;12.83;100.00;102606.78;5251057;28;19920;-61
2022/03/14 11:52:52;;;;;;;;;;;;;;;12.84;100.00;102601.13;5250949;28;20260;-59
2022/03/14 11:55:24;;;;;;;;;;;;;;;12.85;100.00;102608.22;5250908;28;19924;-60
2022/03/14 11:57:55;;;;;;;;;;;;;;;12.76;100.00;102609.56;5251167;28;19912;-62
2022/03/14 12:00:27;;;;;;;;;;;;;;;12.69;100.00;102616.16;5251211;28;19946;-59
2022/03/14 12:03:01;;;;;;;;;;;;;;;12.88;100.00;102608.81;5250943;28;20014;-65
2022/03/14 12:05:31;;;;;;;;;;;;;;;13.15;100.00;102607.41;5250580;28;19915;-59
2022/03/14 12:08:22;;;;;;;;;;;;;;;13.39;100.00;102602.88;5268995;28;20368;-59
2022/03/14 12:10:52;;;;;;;;;;;;;;;13.51;100.00;102612.72;5200613;28;19911;-59
2022/03/14 12:13:46;;;;;;;;;;;;;;;13.54;100.00;102616.03;5249064;28;20006;-60
2022/03/14 12:16:35;;;;;;;;;;;;;;;13.58;100.00;102611.78;5250572;28;19912;-60
2022/03/14 12:19:24;;;;;;;;;;;;;;;13.57;100.00;102610.16;5250571;28;19918;-60
2022/03/14 12:21:57;;;;;;;;;;;;;;;13.75;100.00;102600.00;5250560;28;19919;-59
2022/03/14 12:24:36;;;;;;;;;;;;;;;13.84;100.00;102608.66;5249935;28;19920;-59
2022/03/14 12:27:26;;;;;;;;;;;;;;;14.09;100.00;102622.81;5250340;28;19912;-59
2022/03/14 12:29:57;;;;;;;;;;;;;;;14.10;100.00;102612.78;5249893;28;19923;-59
2022/03/14 12:32:29;;;;;;;;;;;;;;;14.18;100.00;102607.78;5250190;28;20466;-59
2022/03/14 12:34:59;;;;;;;;;;;;;;;14.14;100.00;102613.97;5249886;28;19965;-59
2022/03/14 12:37:43;;;;;;;;;;;;;;;14.01;100.00;102615.03;5250374;28;19916;-66
2022/03/14 12:40:33;;;;;;;;;;;;;;;13.63;100.00;102607.31;5250141;28;19912;-59
2022/03/14 12:43:07;;;;;;;;;;;;;;;13.29;100.00;102600.72;5249857;28;20003;-59
2022/03/14 12:45:39;;;;;;;;;;;;;;;13.09;100.00;102606.44;5249811;28;19912;-58
2022/03/14 12:48:15;;;;;;;;;;;;;;;13.07;100.00;102608.53;5250331;28;20387;-58
2022/03/14 12:50:48;;;;;;;;;;;;;;;13.27;100.00;102599.34;5250178;28;19912;-58
2022/03/14 12:53:35;;;;;;;;;;;;;;;13.42;100.00;102599.72;5249990;28;19916;-59